This is the latest recevied weather packets stored in our database for station/object IW2LSY-11. If no packets are shown the sender has not sent any weather packets the latest 10 day(s).
| Time | Temp. | Humidity | Pressure | Rain* | Wind** | Luminosity | Snow |
|---|---|---|---|---|---|---|---|
| 1777663805 | 15° C | 51% | 1025.5 hPa | - | - | 471 W/m² | - |
| 1777663205 | 16.11° C | 48% | 1025.3 hPa | - | - | 471 W/m² | - |
| 1777662604 | 15.56° C | 48% | 1025.1 hPa | - | - | 471 W/m² | - |
| 1777662005 | 16.67° C | 46% | 1024.9 hPa | - | - | 472 W/m² | - |
| 1777661405 | 16.67° C | 43% | 1024.7 hPa | - | - | 473 W/m² | - |
| 1777660805 | 16.67° C | 44% | 1024.6 hPa | - | - | 473 W/m² | - |
| 1777660206 | 17.78° C | 42% | 1024.3 hPa | - | - | 473 W/m² | - |
| 1777659606 | 17.78° C | 42% | 1024.2 hPa | - | - | 473 W/m² | - |
| 1777659007 | 18.33° C | 41% | 1024.1 hPa | - | - | 474 W/m² | - |
| 1777658406 | 18.89° C | 39% | 1023.9 hPa | - | - | 475 W/m² | - |
| 1777657806 | 20° C | 35% | 1023.7 hPa | - | - | 475 W/m² | - |
| 1777657207 | 20° C | 35% | 1023.6 hPa | - | - | 475 W/m² | - |
| 1777656607 | 20° C | 32% | 1023.3 hPa | - | - | 475 W/m² | - |
| 1777656007 | 20.56° C | 31% | 1023.3 hPa | - | - | 476 W/m² | - |
| 1777655408 | 21.11° C | 31% | 1023.2 hPa | - | - | 477 W/m² | - |
| 1777654808 | 21.11° C | 31% | 1023.1 hPa | - | - | 478 W/m² | - |
| 1777654208 | 21.11° C | 30% | 1023 hPa | - | - | 478 W/m² | - |
| 1777653609 | 21.11° C | 30% | 1023 hPa | - | - | 478 W/m² | - |
| 1777653009 | 21.11° C | 30% | 1023.1 hPa | - | - | 479 W/m² | - |
| 1777652409 | 21.67° C | 30% | 1023.1 hPa | - | - | 480 W/m² | - |
| 1777651809 | 21.67° C | 29% | 1023.1 hPa | - | - | 479 W/m² | - |
| 1777651209 | 22.22° C | 29% | 1023.2 hPa | - | - | 480 W/m² | - |
| 1777650608 | 21.67° C | 29% | 1023.2 hPa | - | - | 481 W/m² | - |
| 1777650009 | 22.78° C | 29% | 1023.3 hPa | - | - | 481 W/m² | - |
| 1777649408 | 22.22° C | 30% | 1023.3 hPa | - | - | 481 W/m² | - |
* Rain since midnight (hover to see other rain measurements)
** Current wind speed in m/s (hover to see current wind gust speed)